Latest Weather Observations for Little Bay

IDN60801

Issued at 12:32 am EST Thursday 25 April 2019 (issued every 10 minutes, with the page automatically refreshed every 10 minutes)

About weather observations | Map of weather stations | Latest weather observations for NSW | Other Formats
Station Details ID: 066051 Name: LITTLE BAY (THE COAST GOLF CLUB) Lat: -33.98 Lon: 151.25 Height: 22.0 m
Data from the previous 72 hours. | See also: Recent months at Little Bay
Date/Time
EST
Temp
°C
App
Temp
°C
Dew
Point
°C
Rel
Hum
%
Delta-T
°C
Wind Press
QNH
hPa
Press
MSL
hPa
Rain since
9am
mm
Dir  Spd
km/h
Gust
km/h
Spd
kts
Gust
kts
25/12:30am - - - - - CALM 0 2 0 1 - - -
25/12:00am - - - - - NNW 7 9 4 5 - - -
 
Date/Time
EST
Temp
°C
App
Temp
°C
Dew
Point
°C
Rel
Hum
%
Delta-T
°C
Wind Press
QNH
hPa
Press
MSL
hPa
Rain since
9am
mm
Dir  Spd
km/h
Gust
km/h
Spd
kts
Gust
kts
24/11:30pm - - - - - NW 7 11 4 6 - - -
24/11:00pm - - - - - NNW 11 17 6 9 - - -
24/10:30pm - - - - - NNW 13 17 7 9 - - -
24/10:00pm - - - - - NNW 9 13 5 7 - - -
24/09:30pm - - - - - N 11 15 6 8 - - -
24/09:00pm - - - - - N 11 17 6 9 - - -
24/08:30pm - - - - - N 9 17 5 9 - - -
24/08:00pm - - - - - NNE 17 24 9 13 - - -
24/07:30pm - - - - - NNE 22 28 12 15 - - -
24/07:00pm - - - - - NNE 19 26 10 14 - - -
24/06:30pm - - - - - NNE 20 26 11 14 - - -
24/06:00pm - - - - - NNE 20 26 11 14 - - -
24/05:30pm - - - - - NNE 19 26 10 14 - - -
24/05:00pm - - - - - NNE 20 28 11 15 - - -
24/04:30pm - - - - - NNE 20 26 11 14 - - -
24/04:00pm - - - - - NNE 20 26 11 14 - - -
24/03:30pm - - - - - NNE 19 24 10 13 - - -
24/03:00pm - - - - - NNE 17 24 9 13 - - -
24/02:30pm - - - - - NNE 17 22 9 12 - - -
24/02:00pm - - - - - NE 19 26 10 14 - - -
24/01:30pm - - - - - NNE 19 24 10 13 - - -
24/01:00pm - - - - - NE 19 24 10 13 - - -
24/12:30pm - - - - - NNE 17 22 9 12 - - -
24/12:00pm - - - - - NE 17 22 9 12 - - -
24/11:30am - - - - - NE 11 19 6 10 - - -
24/11:00am - - - - - NE 9 17 5 9 - - -
24/10:30am - - - - - ESE 4 9 2 5 - - -
24/10:00am - - - - - SW 7 9 4 5 - - -
24/09:30am - - - - - W 7 13 4 7 - - -
24/09:00am - - - - - W 9 11 5 6 - - -
24/08:30am - - - - - W 9 13 5 7 - - -
24/08:00am - - - - - W 9 13 5 7 - - -
24/07:30am - - - - - WNW 9 13 5 7 - - -
24/07:00am - - - - - WNW 9 13 5 7 - - -
24/06:30am - - - - - WNW 9 13 5 7 - - -
24/06:00am - - - - - WNW 9 15 5 8 - - -
24/05:30am - - - - - WNW 9 13 5 7 - - -
24/05:00am - - - - - NNW 9 15 5 8 - - -
24/04:30am - - - - - NNE 9 13 5 7 - - -
24/04:00am - - - - - NNE 11 17 6 9 - - -
24/03:30am - - - - - NE 11 13 6 7 - - -
24/03:00am - - - - - NE 11 17 6 9 - - -
24/02:30am - - - - - NNE 9 15 5 8 - - -
24/02:00am - - - - - NNE 15 19 8 10 - - -
24/01:30am - - - - - NNE 15 19 8 10 - - -
24/01:00am - - - - - NE 15 24 8 13 - - -
24/12:30am - - - - - NNE 17 22 9 12 - - -
24/12:00am - - - - - NNE 20 26 11 14 - - -
 
Date/Time
EST
Temp
°C
App
Temp
°C
Dew
Point
°C
Rel
Hum
%
Delta-T
°C
Wind Press
QNH
hPa
Press
MSL
hPa
Rain since
9am
mm
Dir  Spd
km/h
Gust
km/h
Spd
kts
Gust
kts
23/11:30pm - - - - - NNE 17 24 9 13 - - -
23/11:00pm - - - - - NE 9 11 5 6 - - -
23/10:30pm - - - - - NE 9 13 5 7 - - -
23/10:00pm - - - - - NNE 9 13 5 7 - - -
23/09:30pm - - - - - NNE 11 15 6 8 - - -
23/09:00pm - - - - - NNE 17 22 9 12 - - -
23/08:30pm - - - - - NE 19 28 10 15 - - -
23/08:00pm - - - - - E 9 13 5 7 - - -
23/07:30pm - - - - - E 9 13 5 7 - - -
23/07:00pm - - - - - ESE 9 13 5 7 - - -
23/06:30pm - - - - - SE 13 15 7 8 - - -
23/06:00pm - - - - - ESE 13 15 7 8 - - -
23/05:30pm - - - - - SE 15 19 8 10 - - -
23/05:00pm - - - - - SE 17 20 9 11 - - -
23/04:30pm - - - - - SE 15 19 8 10 - - -
23/04:00pm - - - - - SE 15 19 8 10 - - -
23/03:30pm - - - - - SE 15 19 8 10 - - -
23/03:00pm - - - - - SE 13 17 7 9 - - -
23/02:30pm - - - - - SSE 13 17 7 9 - - -
23/02:00pm - - - - - SSE 15 17 8 9 - - -
23/01:30pm - - - - - SSE 17 20 9 11 - - -
23/01:00pm - - - - - SSE 17 20 9 11 - - -
23/12:30pm - - - - - S 17 22 9 12 - - -
23/12:00pm - - - - - S 17 20 9 11 - - -
23/11:30am - - - - - S 17 22 9 12 - - -
23/11:00am - - - - - S 17 20 9 11 - - -
23/10:30am - - - - - S 15 20 8 11 - - -
23/10:00am - - - - - SSW 17 20 9 11 - - -
23/09:30am - - - - - S 15 20 8 11 - - -
23/09:00am - - - - - SSW 13 19 7 10 - - -
23/08:30am - - - - - SSW 9 15 5 8 - - -
23/08:00am - - - - - SSE 9 17 5 9 - - -
23/07:30am - - - - - S 15 20 8 11 - - -
23/07:00am - - - - - SSW 15 20 8 11 - - -
23/06:30am - - - - - SSW 15 22 8 12 - - -
23/06:00am - - - - - SSW 17 22 9 12 - - -
23/05:30am - - - - - SW 11 17 6 9 - - -
23/05:00am - - - - - SSW 11 17 6 9 - - -
23/04:30am - - - - - SSW 11 15 6 8 - - -
23/04:00am - - - - - SW 6 7 3 4 - - -
23/03:30am - - - - - SW 6 7 3 4 - - -
23/03:00am - - - - - SSE 6 7 3 4 - - -
23/02:30am - - - - - CALM 0 0 0 0 - - -
23/02:00am - - - - - CALM 0 0 0 0 - - -
23/01:30am - - - - - CALM 0 0 0 0 - - -
23/01:00am - - - - - NNW 4 4 2 2 - - -
23/12:30am - - - - - N 2 4 1 2 - - -
23/12:00am - - - - - CALM 0 0 0 0 - - -
 
Date/Time
EST
Temp
°C
App
Temp
°C
Dew
Point
°C
Rel
Hum
%
Delta-T
°C
Wind Press
QNH
hPa
Press
MSL
hPa
Rain since
9am
mm
Dir  Spd
km/h
Gust
km/h
Spd
kts
Gust
kts
22/11:30pm - - - - - CALM 0 0 0 0 - - -
22/11:00pm - - - - - CALM 0 2 0 1 - - -
22/10:30pm - - - - - NW 2 4 1 2 - - -
22/10:00pm - - - - - NNW 4 4 2 2 - - -
22/09:30pm - - - - - N 4 6 2 3 - - -
22/09:00pm - - - - - N 6 7 3 4 - - -
22/08:30pm - - - - - NNE 9 13 5 7 - - -
22/08:00pm - - - - - NNE 11 15 6 8 - - -
22/07:30pm - - - - - NNE 11 17 6 9 - - -
22/07:00pm - - - - - NNE 11 17 6 9 - - -
22/06:30pm - - - - - NNE 13 19 7 10 - - -
22/06:00pm - - - - - NNE 17 20 9 11 - - -
22/05:30pm - - - - - NNE 17 22 9 12 - - -
22/05:00pm - - - - - NNE 22 32 12 17 - - -
22/04:30pm - - - - - NNE 22 32 12 17 - - -
22/04:00pm - - - - - NNE 24 32 13 17 - - -
22/03:30pm - - - - - NNE 20 28 11 15 - - -
22/03:00pm - - - - - NE 19 24 10 13 - - -
22/02:30pm - - - - - NNE 20 26 11 14 - - -
22/02:00pm - - - - - NE 19 24 10 13 - - -
22/01:30pm - - - - - NNE 19 24 10 13 - - -
22/01:00pm - - - - - NNE 19 26 10 14 - - -
22/12:30pm - - - - - NE 22 28 12 15 - - -
22/12:00pm - - - - - NNE 20 26 11 14 - - -
22/11:30am - - - - - NNE 20 28 11 15 - - -
22/11:00am - - - - - NNE 19 28 10 15 - - -
22/10:30am - - - - - NNE 19 24 10 13 - - -
22/10:00am - - - - - NNE 15 22 8 12 - - -
22/09:30am - - - - - NNE 11 15 6 8 - - -
22/09:00am - - - - - NNW 7 11 4 6 - - -
22/08:30am - - - - - WNW 2 4 1 2 - - -
22/08:00am - - - - - W 7 9 4 5 - - -
22/07:30am - - - - - W 9 13 5 7 - - -
22/07:00am - - - - - WNW 6 7 3 4 - - -
22/06:30am - - - - - NNW 6 7 3 4 - - -
22/06:00am - - - - - N 7 11 4 6 - - -
22/05:30am - - - - - N 7 11 4 6 - - -
22/05:00am - - - - - N 11 17 6 9 - - -
22/04:30am - - - - - NNE 15 20 8 11 - - -
22/04:00am - - - - - NNE 15 20 8 11 - - -
22/03:30am - - - - - NNE 11 15 6 8 - - -
22/03:00am - - - - - N 9 17 5 9 - - -
22/02:30am - - - - - N 9 13 5 7 - - -
22/02:00am - - - - - N 9 13 5 7 - - -
22/01:30am - - - - - N 7 11 4 6 - - -
22/01:00am - - - - - N 9 13 5 7 - - -

Other formats

Comma delimited format used in spreadsheet applications
http://www.bom.gov.au/fwo/IDN60801/IDN60801.94780.axf

JavaScript Object Notation format (JSON) in row-major order
http://www.bom.gov.au/fwo/IDN60801/IDN60801.94780.json

Data quality

Most of these data are generated automatically and are frequently updated. Quality checks on data are not normally performed. It is possible for incorrect values to appear. Refer to information at About Latest Weather Observations and please check the disclaimer before using these data.